sensor_id;sensor_type;location;lat;lon;timestamp;pressure;altitude;pressure_sealevel;temperature;humidity
9225;BME280;4647;48.072;11.616;2023-08-12T00:00:39;95718.19;;;16.42;86.43
9225;BME280;4647;48.072;11.616;2023-08-12T00:03:08;95729.13;;;16.42;86.95
9225;BME280;4647;48.072;11.616;2023-08-12T00:05:36;95718.06;;;16.20;87.07
9225;BME280;4647;48.072;11.616;2023-08-12T00:08:05;95697.94;;;16.14;87.37
9225;BME280;4647;48.072;11.616;2023-08-12T00:10:34;95730.97;;;16.32;86.37
9225;BME280;4647;48.072;11.616;2023-08-12T00:13:03;95722.97;;;16.25;87.03
9225;BME280;4647;48.072;11.616;2023-08-12T00:15:31;95724.19;;;16.24;87.58
9225;BME280;4647;48.072;11.616;2023-08-12T00:18:03;95717.41;;;16.16;88.04
9225;BME280;4647;48.072;11.616;2023-08-12T00:20:32;95717.94;;;16.23;87.85
9225;BME280;4647;48.072;11.616;2023-08-12T00:23:01;95721.13;;;16.22;87.90
9225;BME280;4647;48.072;11.616;2023-08-12T00:25:29;95722.22;;;16.12;87.95
9225;BME280;4647;48.072;11.616;2023-08-12T00:27:58;95715.72;;;16.06;89.03
9225;BME280;4647;48.072;11.616;2023-08-12T00:30:26;95712.75;;;16.00;89.59
9225;BME280;4647;48.072;11.616;2023-08-12T00:32:55;95710.69;;;16.04;89.24
9225;BME280;4647;48.072;11.616;2023-08-12T00:35:26;95708.53;;;16.12;88.72
9225;BME280;4647;48.072;11.616;2023-08-12T00:37:54;95705.00;;;15.99;90.28
9225;BME280;4647;48.072;11.616;2023-08-12T00:40:23;95699.22;;;15.96;90.52
9225;BME280;4647;48.072;11.616;2023-08-12T00:42:51;95707.09;;;16.07;89.19
9225;BME280;4647;48.072;11.616;2023-08-12T00:45:20;95705.13;;;16.08;88.70
9225;BME280;4647;48.072;11.616;2023-08-12T00:47:48;95702.16;;;16.02;89.17
9225;BME280;4647;48.072;11.616;2023-08-12T00:50:17;95695.50;;;16.03;89.08
9225;BME280;4647;48.072;11.616;2023-08-12T00:52:48;95692.41;;;15.88;89.16
9225;BME280;4647;48.072;11.616;2023-08-12T00:55:18;95690.56;;;15.85;89.13
9225;BME280;4647;48.072;11.616;2023-08-12T00:57:46;95684.06;;;15.79;89.55
9225;BME280;4647;48.072;11.616;2023-08-12T01:00:16;95696.53;;;15.80;89.28
9225;BME280;4647;48.072;11.616;2023-08-12T01:02:46;95692.28;;;15.79;89.11
9225;BME280;4647;48.072;11.616;2023-08-12T01:05:17;95696.31;;;15.75;89.69
9225;BME280;4647;48.072;11.616;2023-08-12T01:07:48;95692.47;;;15.72;89.69
9225;BME280;4647;48.072;11.616;2023-08-12T01:10:19;95688.75;;;15.66;89.91
9225;BME280;4647;48.072;11.616;2023-08-12T01:12:52;95687.22;;;15.65;90.44
9225;BME280;4647;48.072;11.616;2023-08-12T01:15:22;95684.63;;;15.58;90.96
9225;BME280;4647;48.072;11.616;2023-08-12T01:17:53;95689.09;;;15.68;90.54
9225;BME280;4647;48.072;11.616;2023-08-12T01:20:23;95691.16;;;15.64;90.10
9225;BME280;4647;48.072;11.616;2023-08-12T01:22:57;95679.03;;;15.65;89.89
9225;BME280;4647;48.072;11.616;2023-08-12T01:25:28;95669.63;;;15.66;89.81
9225;BME280;4647;48.072;11.616;2023-08-12T01:27:56;95666.91;;;15.50;90.82
9225;BME280;4647;48.072;11.616;2023-08-12T01:30:25;95659.81;;;15.52;90.49
9225;BME280;4647;48.072;11.616;2023-08-12T01:32:57;95672.28;;;15.53;90.08
9225;BME280;4647;48.072;11.616;2023-08-12T01:35:34;95671.28;;;15.47;90.70
9225;BME280;4647;48.072;11.616;2023-08-12T01:38:05;95667.28;;;15.35;91.25
9225;BME280;4647;48.072;11.616;2023-08-12T01:40:38;95664.91;;;15.38;90.99
9225;BME280;4647;48.072;11.616;2023-08-12T01:43:07;95668.75;;;15.40;91.14
9225;BME280;4647;48.072;11.616;2023-08-12T01:45:36;95673.03;;;15.41;91.30
9225;BME280;4647;48.072;11.616;2023-08-12T01:48:06;95674.66;;;15.39;91.02
9225;BME280;4647;48.072;11.616;2023-08-12T01:50:34;95674.38;;;15.33;92.04
9225;BME280;4647;48.072;11.616;2023-08-12T01:53:03;95674.81;;;15.31;92.21
9225;BME280;4647;48.072;11.616;2023-08-12T01:55:31;95659.97;;;15.32;91.97
9225;BME280;4647;48.072;11.616;2023-08-12T01:58:03;95669.69;;;15.33;91.36
9225;BME280;4647;48.072;11.616;2023-08-12T02:00:31;95654.38;;;15.23;92.57
9225;BME280;4647;48.072;11.616;2023-08-12T02:03:00;95661.38;;;15.24;92.34
9225;BME280;4647;48.072;11.616;2023-08-12T02:05:28;95658.75;;;15.21;92.20
9225;BME280;4647;48.072;11.616;2023-08-12T02:07:56;95656.00;;;15.21;91.97
9225;BME280;4647;48.072;11.616;2023-08-12T02:10:25;95655.66;;;15.19;92.04
9225;BME280;4647;48.072;11.616;2023-08-12T02:12:56;95631.47;;;15.04;92.97
9225;BME280;4647;48.072;11.616;2023-08-12T02:15:27;95654.13;;;15.18;93.31
9225;BME280;4647;48.072;11.616;2023-08-12T02:17:56;95647.06;;;15.20;92.39
9225;BME280;4647;48.072;11.616;2023-08-12T02:20:24;95650.72;;;15.14;92.49
9225;BME280;4647;48.072;11.616;2023-08-12T02:22:53;95641.34;;;15.15;92.97
9225;BME280;4647;48.072;11.616;2023-08-12T02:25:21;95643.38;;;15.11;92.72
9225;BME280;4647;48.072;11.616;2023-08-12T02:27:50;95634.44;;;15.10;92.58
9225;BME280;4647;48.072;11.616;2023-08-12T02:30:18;95628.84;;;15.01;92.89
9225;BME280;4647;48.072;11.616;2023-08-12T02:32:49;95631.75;;;14.94;92.78
9225;BME280;4647;48.072;11.616;2023-08-12T02:35:18;95629.19;;;14.87;93.38
9225;BME280;4647;48.072;11.616;2023-08-12T02:37:47;95630.91;;;14.81;93.45
9225;BME280;4647;48.072;11.616;2023-08-12T02:40:16;95622.50;;;14.75;93.57
9225;BME280;4647;48.072;11.616;2023-08-12T02:42:45;95626.06;;;14.72;93.23
9225;BME280;4647;48.072;11.616;2023-08-12T02:45:13;95618.47;;;14.63;93.86
9225;BME280;4647;48.072;11.616;2023-08-12T02:47:41;95623.69;;;14.58;94.59
9225;BME280;4647;48.072;11.616;2023-08-12T02:50:12;95620.44;;;14.63;93.75
9225;BME280;4647;48.072;11.616;2023-08-12T02:52:41;95616.78;;;14.69;93.28
9225;BME280;4647;48.072;11.616;2023-08-12T02:55:09;95613.72;;;14.67;93.33
9225;BME280;4647;48.072;11.616;2023-08-12T02:57:38;95611.50;;;14.62;93.61
9225;BME280;4647;48.072;11.616;2023-08-12T03:00:08;95599.16;;;14.58;93.24
9225;BME280;4647;48.072;11.616;2023-08-12T03:02:37;95591.72;;;14.58;94.12
9225;BME280;4647;48.072;11.616;2023-08-12T03:05:07;95596.31;;;14.61;93.61
9225;BME280;4647;48.072;11.616;2023-08-12T03:07:38;95601.69;;;14.65;93.62
9225;BME280;4647;48.072;11.616;2023-08-12T03:10:07;95602.63;;;14.58;94.28
9225;BME280;4647;48.072;11.616;2023-08-12T03:12:36;95589.53;;;14.53;93.91
9225;BME280;4647;48.072;11.616;2023-08-12T03:15:06;95607.16;;;14.65;93.77
9225;BME280;4647;48.072;11.616;2023-08-12T03:17:35;95602.81;;;14.67;93.42
9225;BME280;4647;48.072;11.616;2023-08-12T03:20:05;95602.97;;;14.60;93.55
9225;BME280;4647;48.072;11.616;2023-08-12T03:22:34;95594.75;;;14.48;93.63
9225;BME280;4647;48.072;11.616;2023-08-12T03:25:06;95609.03;;;14.52;94.06
9225;BME280;4647;48.072;11.616;2023-08-12T03:27:35;95609.28;;;14.57;94.08
9225;BME280;4647;48.072;11.616;2023-08-12T03:30:04;95622.59;;;14.55;93.79
9225;BME280;4647;48.072;11.616;2023-08-12T03:32:32;95609.81;;;14.52;94.50
9225;BME280;4647;48.072;11.616;2023-08-12T03:35:01;95604.69;;;14.54;94.12
9225;BME280;4647;48.072;11.616;2023-08-12T03:37:29;95607.31;;;14.58;93.79
9225;BME280;4647;48.072;11.616;2023-08-12T03:39:58;95606.56;;;14.57;93.70
9225;BME280;4647;48.072;11.616;2023-08-12T03:42:29;95611.50;;;14.62;93.65
9225;BME280;4647;48.072;11.616;2023-08-12T03:44:57;95609.28;;;14.57;93.09
9225;BME280;4647;48.072;11.616;2023-08-12T03:47:25;95605.13;;;14.53;93.24
9225;BME280;4647;48.072;11.616;2023-08-12T03:49:54;95607.69;;;14.43;93.65
9225;BME280;4647;48.072;11.616;2023-08-12T03:52:23;95605.19;;;14.33;94.06
9225;BME280;4647;48.072;11.616;2023-08-12T03:54:51;95601.94;;;14.38;93.57
9225;BME280;4647;48.072;11.616;2023-08-12T03:57:21;95606.50;;;14.45;93.62
9225;BME280;4647;48.072;11.616;2023-08-12T03:59:52;95606.53;;;14.41;93.49
9225;BME280;4647;48.072;11.616;2023-08-12T04:02:20;95597.34;;;14.35;93.65
9225;BME280;4647;48.072;11.616;2023-08-12T04:04:49;95606.63;;;14.37;93.22
9225;BME280;4647;48.072;11.616;2023-08-12T04:07:17;95592.75;;;14.32;93.65
9225;BME280;4647;48.072;11.616;2023-08-12T04:09:45;95605.50;;;14.35;93.89
9225;BME280;4647;48.072;11.616;2023-08-12T04:12:15;95611.31;;;14.37;93.51
9225;BME280;4647;48.072;11.616;2023-08-12T04:14:43;95608.06;;;14.42;93.89
9225;BME280;4647;48.072;11.616;2023-08-12T04:17:14;95601.34;;;14.79;95.47
9225;BME280;4647;48.072;11.616;2023-08-12T04:19:42;95608.88;;;15.62;99.71
9225;BME280;4647;48.072;11.616;2023-08-12T04:22:11;95593.72;;;16.12;88.97
9225;BME280;4647;48.072;11.616;2023-08-12T04:24:39;95602.16;;;16.90;84.61
9225;BME280;4647;48.072;11.616;2023-08-12T04:27:08;95606.16;;;17.76;77.88
9225;BME280;4647;48.072;11.616;2023-08-12T04:29:36;95601.66;;;18.23;75.13
9225;BME280;4647;48.072;11.616;2023-08-12T04:32:05;95599.16;;;18.06;75.00
9225;BME280;4647;48.072;11.616;2023-08-12T04:34:36;95600.91;;;17.91;75.28
9225;BME280;4647;48.072;11.616;2023-08-12T04:37:05;95606.13;;;19.06;71.55
9225;BME280;4647;48.072;11.616;2023-08-12T04:39:33;95599.72;;;19.64;65.97
9225;BME280;4647;48.072;11.616;2023-08-12T04:42:01;95597.34;;;20.32;64.02
9225;BME280;4647;48.072;11.616;2023-08-12T04:44:30;95605.66;;;20.56;62.47
9225;BME280;4647;48.072;11.616;2023-08-12T04:46:58;95608.13;;;21.02;61.70
9225;BME280;4647;48.072;11.616;2023-08-12T04:49:27;95608.41;;;21.04;61.43
9225;BME280;4647;48.072;11.616;2023-08-12T04:51:58;95609.31;;;21.10;60.40
9225;BME280;4647;48.072;11.616;2023-08-12T04:54:26;95609.88;;;21.53;59.31
9225;BME280;4647;48.072;11.616;2023-08-12T04:56:55;95603.72;;;21.72;58.49
9225;BME280;4647;48.072;11.616;2023-08-12T04:59:25;95608.13;;;21.79;57.89
9225;BME280;4647;48.072;11.616;2023-08-12T05:01:53;95605.44;;;21.99;57.60
9225;BME280;4647;48.072;11.616;2023-08-12T05:04:22;95613.66;;;22.09;57.22
9225;BME280;4647;48.072;11.616;2023-08-12T05:06:50;95603.56;;;22.90;55.00
9225;BME280;4647;48.072;11.616;2023-08-12T05:09:21;95609.19;;;22.96;54.74
9225;BME280;4647;48.072;11.616;2023-08-12T05:11:50;95609.56;;;23.50;53.26
9225;BME280;4647;48.072;11.616;2023-08-12T05:14:18;95611.97;;;24.46;50.43
9225;BME280;4647;48.072;11.616;2023-08-12T05:16:46;95601.91;;;24.48;49.81
9225;BME280;4647;48.072;11.616;2023-08-12T05:19:15;95605.91;;;24.42;50.20
9225;BME280;4647;48.072;11.616;2023-08-12T05:21:43;95599.94;;;23.92;51.69
9225;BME280;4647;48.072;11.616;2023-08-12T05:24:12;95607.88;;;24.10;51.28
9225;BME280;4647;48.072;11.616;2023-08-12T05:26:43;95601.22;;;23.96;51.81
9225;BME280;4647;48.072;11.616;2023-08-12T05:29:11;95601.97;;;23.45;52.87
9225;BME280;4647;48.072;11.616;2023-08-12T05:31:40;95608.06;;;23.28;53.74
9225;BME280;4647;48.072;11.616;2023-08-12T05:34:08;95602.09;;;23.56;53.24
9225;BME280;4647;48.072;11.616;2023-08-12T05:36:37;95604.91;;;23.41;52.99
9225;BME280;4647;48.072;11.616;2023-08-12T05:39:05;95607.47;;;22.99;55.26
9225;BME280;4647;48.072;11.616;2023-08-12T05:41:34;95606.91;;;22.59;56.68
9225;BME280;4647;48.072;11.616;2023-08-12T05:44:05;95605.66;;;21.81;58.81
9225;BME280;4647;48.072;11.616;2023-08-12T05:46:34;95601.31;;;21.51;59.71
9225;BME280;4647;48.072;11.616;2023-08-12T05:49:02;95602.97;;;21.19;61.23
9225;BME280;4647;48.072;11.616;2023-08-12T05:51:31;95611.94;;;21.04;62.43
9225;BME280;4647;48.072;11.616;2023-08-12T05:53:59;95609.06;;;20.99;62.44
9225;BME280;4647;48.072;11.616;2023-08-12T05:56:28;95615.00;;;21.06;62.73
9225;BME280;4647;48.072;11.616;2023-08-12T05:58:56;95599.19;;;20.68;63.47
9225;BME280;4647;48.072;11.616;2023-08-12T06:01:27;95611.81;;;20.75;63.97
9225;BME280;4647;48.072;11.616;2023-08-12T06:03:56;95609.63;;;20.88;63.43
9225;BME280;4647;48.072;11.616;2023-08-12T06:06:24;95604.59;;;21.01;62.71
9225;BME280;4647;48.072;11.616;2023-08-12T06:08:53;95611.78;;;21.08;63.19
9225;BME280;4647;48.072;11.616;2023-08-12T06:11:21;95608.75;;;21.21;62.84
9225;BME280;4647;48.072;11.616;2023-08-12T06:13:49;95609.03;;;21.08;63.68
9225;BME280;4647;48.072;11.616;2023-08-12T06:16:18;95613.16;;;21.27;63.30
9225;BME280;4647;48.072;11.616;2023-08-12T06:18:49;95603.81;;;21.49;62.14
9225;BME280;4647;48.072;11.616;2023-08-12T06:21:17;95605.25;;;21.59;62.86
9225;BME280;4647;48.072;11.616;2023-08-12T06:23:46;95590.41;;;21.71;62.30
9225;BME280;4647;48.072;11.616;2023-08-12T06:26:14;95521.56;;;21.32;62.50
9225;BME280;4647;48.072;11.616;2023-08-12T06:28:43;95596.03;;;21.91;62.21
9225;BME280;4647;48.072;11.616;2023-08-12T06:31:11;95605.63;;;21.96;62.14
9225;BME280;4647;48.072;11.616;2023-08-12T06:33:39;95608.50;;;22.16;62.01
9225;BME280;4647;48.072;11.616;2023-08-12T06:36:11;95602.84;;;22.40;61.36
9225;BME280;4647;48.072;11.616;2023-08-12T06:38:39;95614.28;;;22.83;60.99
9225;BME280;4647;48.072;11.616;2023-08-12T06:41:07;95609.09;;;23.31;59.16
9225;BME280;4647;48.072;11.616;2023-08-12T06:43:36;95606.94;;;23.61;56.91
9225;BME280;4647;48.072;11.616;2023-08-12T06:46:04;95596.69;;;23.93;55.16
9225;BME280;4647;48.072;11.616;2023-08-12T06:48:33;95595.25;;;24.03;55.30
9225;BME280;4647;48.072;11.616;2023-08-12T06:51:01;95598.25;;;24.31;54.94
9225;BME280;4647;48.072;11.616;2023-08-12T06:53:38;95592.63;;;24.20;53.81
9225;BME280;4647;48.072;11.616;2023-08-12T06:56:07;95589.34;;;24.53;53.84
9225;BME280;4647;48.072;11.616;2023-08-12T06:58:35;95590.28;;;24.39;54.15
9225;BME280;4647;48.072;11.616;2023-08-12T07:01:04;95593.03;;;24.13;54.68
9225;BME280;4647;48.072;11.616;2023-08-12T07:03:32;95595.28;;;24.09;54.49
9225;BME280;4647;48.072;11.616;2023-08-12T07:06:01;95589.47;;;24.33;53.53
9225;BME280;4647;48.072;11.616;2023-08-12T07:08:29;95574.84;;;24.75;53.30
9225;BME280;4647;48.072;11.616;2023-08-12T07:11:00;95580.78;;;24.57;54.58
9225;BME280;4647;48.072;11.616;2023-08-12T07:13:30;95587.31;;;24.48;54.13
9225;BME280;4647;48.072;11.616;2023-08-12T07:15:58;95588.50;;;24.84;53.59
9225;BME280;4647;48.072;11.616;2023-08-12T07:18:27;95580.19;;;25.32;52.17
9225;BME280;4647;48.072;11.616;2023-08-12T07:20:56;95573.34;;;25.28;51.92
9225;BME280;4647;48.072;11.616;2023-08-12T07:23:25;95583.31;;;25.68;51.81
9225;BME280;4647;48.072;11.616;2023-08-12T07:25:53;95580.69;;;25.36;51.87
9225;BME280;4647;48.072;11.616;2023-08-12T07:28:24;95586.31;;;25.59;51.65
9225;BME280;4647;48.072;11.616;2023-08-12T07:30:53;95579.31;;;25.91;51.50
9225;BME280;4647;48.072;11.616;2023-08-12T07:33:21;95588.13;;;25.95;50.84
9225;BME280;4647;48.072;11.616;2023-08-12T07:35:50;95572.22;;;26.24;50.43
9225;BME280;4647;48.072;11.616;2023-08-12T07:38:18;95584.59;;;26.45;50.01
9225;BME280;4647;48.072;11.616;2023-08-12T07:40:48;95582.81;;;26.65;49.72
9225;BME280;4647;48.072;11.616;2023-08-12T07:43:16;95574.25;;;26.46;49.41
9225;BME280;4647;48.072;11.616;2023-08-12T07:45:50;95572.59;;;26.95;48.18
9225;BME280;4647;48.072;11.616;2023-08-12T07:48:19;95566.03;;;26.92;46.44
9225;BME280;4647;48.072;11.616;2023-08-12T07:50:54;95570.84;;;26.92;47.42
9225;BME280;4647;48.072;11.616;2023-08-12T07:53:23;95570.88;;;26.86;47.35
9225;BME280;4647;48.072;11.616;2023-08-12T07:55:52;95579.09;;;27.26;46.66
9225;BME280;4647;48.072;11.616;2023-08-12T07:58:20;95571.88;;;26.89;47.00
9225;BME280;4647;48.072;11.616;2023-08-12T08:00:52;95569.59;;;26.99;46.31
9225;BME280;4647;48.072;11.616;2023-08-12T08:03:20;95585.50;;;26.98;47.65
9225;BME280;4647;48.072;11.616;2023-08-12T08:05:49;95583.28;;;27.49;46.11
9225;BME280;4647;48.072;11.616;2023-08-12T08:08:18;95585.69;;;28.10;43.56
9225;BME280;4647;48.072;11.616;2023-08-12T08:10:46;95581.66;;;28.06;43.67
9225;BME280;4647;48.072;11.616;2023-08-12T08:13:15;95582.88;;;28.16;44.29
9225;BME280;4647;48.072;11.616;2023-08-12T08:15:43;95583.31;;;28.26;42.55
9225;BME280;4647;48.072;11.616;2023-08-12T08:18:14;95578.31;;;28.13;42.39
9225;BME280;4647;48.072;11.616;2023-08-12T08:20:43;95574.59;;;28.35;42.30
9225;BME280;4647;48.072;11.616;2023-08-12T08:23:12;95583.72;;;28.65;41.49
9225;BME280;4647;48.072;11.616;2023-08-12T08:25:40;95568.38;;;28.78;41.20
9225;BME280;4647;48.072;11.616;2023-08-12T08:28:09;95575.78;;;29.18;41.45
9225;BME280;4647;48.072;11.616;2023-08-12T08:30:37;95588.69;;;29.21;40.87
9225;BME280;4647;48.072;11.616;2023-08-12T08:33:06;95577.91;;;29.31;40.85
9225;BME280;4647;48.072;11.616;2023-08-12T08:35:37;95584.28;;;29.69;40.33
9225;BME280;4647;48.072;11.616;2023-08-12T08:38:05;95581.28;;;30.18;39.42
9225;BME280;4647;48.072;11.616;2023-08-12T08:40:36;95581.75;;;30.80;38.89
9225;BME280;4647;48.072;11.616;2023-08-12T08:43:07;95570.72;;;30.56;39.70
9225;BME280;4647;48.072;11.616;2023-08-12T08:45:37;95578.28;;;30.61;39.26
9225;BME280;4647;48.072;11.616;2023-08-12T08:48:07;95586.06;;;30.81;38.28
9225;BME280;4647;48.072;11.616;2023-08-12T08:50:39;95582.25;;;30.52;38.57
9225;BME280;4647;48.072;11.616;2023-08-12T08:53:08;95582.03;;;30.18;40.31
9225;BME280;4647;48.072;11.616;2023-08-12T08:55:38;95592.00;;;30.46;39.78
9225;BME280;4647;48.072;11.616;2023-08-12T08:58:07;95585.50;;;30.70;39.42
9225;BME280;4647;48.072;11.616;2023-08-12T09:00:36;95587.13;;;31.05;39.00
9225;BME280;4647;48.072;11.616;2023-08-12T09:03:06;95584.97;;;31.51;38.22
9225;BME280;4647;48.072;11.616;2023-08-12T09:05:39;95586.09;;;31.82;36.96
9225;BME280;4647;48.072;11.616;2023-08-12T09:08:09;95588.19;;;31.55;38.02
9225;BME280;4647;48.072;11.616;2023-08-12T09:10:38;95589.69;;;31.56;37.80
9225;BME280;4647;48.072;11.616;2023-08-12T09:13:08;95588.56;;;32.06;36.22
9225;BME280;4647;48.072;11.616;2023-08-12T09:15:36;95592.00;;;32.12;36.78
9225;BME280;4647;48.072;11.616;2023-08-12T09:18:05;95591.28;;;31.78;37.92
9225;BME280;4647;48.072;11.616;2023-08-12T09:20:34;95599.25;;;31.60;37.67
9225;BME280;4647;48.072;11.616;2023-08-12T09:23:06;95598.44;;;31.12;37.71
9225;BME280;4647;48.072;11.616;2023-08-12T09:25:41;95598.88;;;31.30;38.71
9225;BME280;4647;48.072;11.616;2023-08-12T09:28:10;95598.22;;;30.97;37.93
9225;BME280;4647;48.072;11.616;2023-08-12T09:30:39;95596.06;;;30.90;38.10
9225;BME280;4647;48.072;11.616;2023-08-12T09:33:08;95594.25;;;30.34;39.22
9225;BME280;4647;48.072;11.616;2023-08-12T09:35:38;95597.03;;;30.93;39.18
9225;BME280;4647;48.072;11.616;2023-08-12T09:38:11;95599.25;;;31.73;37.72
9225;BME280;4647;48.072;11.616;2023-08-12T09:40:40;95595.09;;;31.88;37.83
9225;BME280;4647;48.072;11.616;2023-08-12T09:43:09;95591.22;;;31.43;38.91
9225;BME280;4647;48.072;11.616;2023-08-12T09:45:37;95593.78;;;32.02;37.82
9225;BME280;4647;48.072;11.616;2023-08-12T09:48:06;95581.56;;;32.54;37.24
9225;BME280;4647;48.072;11.616;2023-08-12T09:50:36;95591.63;;;32.29;36.16
9225;BME280;4647;48.072;11.616;2023-08-12T09:53:04;95598.34;;;32.13;36.62
9225;BME280;4647;48.072;11.616;2023-08-12T09:55:38;95594.66;;;32.18;36.71
9225;BME280;4647;48.072;11.616;2023-08-12T09:58:09;95586.56;;;32.27;36.83
9225;BME280;4647;48.072;11.616;2023-08-12T10:00:38;95592.22;;;32.56;36.90
9225;BME280;4647;48.072;11.616;2023-08-12T10:03:08;95587.00;;;32.60;34.90
9225;BME280;4647;48.072;11.616;2023-08-12T10:05:39;95599.94;;;30.87;39.02
9225;BME280;4647;48.072;11.616;2023-08-12T10:08:08;95591.53;;;30.87;38.45
9225;BME280;4647;48.072;11.616;2023-08-12T10:10:41;95593.53;;;31.66;37.06
9225;BME280;4647;48.072;11.616;2023-08-12T10:13:10;95592.56;;;31.63;36.38
9225;BME280;4647;48.072;11.616;2023-08-12T10:15:38;95592.19;;;30.80;38.22
9225;BME280;4647;48.072;11.616;2023-08-12T10:18:08;95585.97;;;31.00;38.52
9225;BME280;4647;48.072;11.616;2023-08-12T10:20:38;95581.13;;;31.27;38.21
9225;BME280;4647;48.072;11.616;2023-08-12T10:23:07;95582.50;;;31.07;37.81
9225;BME280;4647;48.072;11.616;2023-08-12T10:25:43;95581.78;;;31.81;37.53
9225;BME280;4647;48.072;11.616;2023-08-12T10:28:11;95587.78;;;31.37;37.77
9225;BME280;4647;48.072;11.616;2023-08-12T10:30:40;95576.84;;;31.60;37.40
9225;BME280;4647;48.072;11.616;2023-08-12T10:33:10;95575.19;;;32.33;37.13
9225;BME280;4647;48.072;11.616;2023-08-12T10:35:42;95591.53;;;31.53;36.48
9225;BME280;4647;48.072;11.616;2023-08-12T10:38:13;95577.31;;;31.51;35.49
9225;BME280;4647;48.072;11.616;2023-08-12T10:40:45;95574.47;;;30.45;36.74
9225;BME280;4647;48.072;11.616;2023-08-12T10:43:14;95584.19;;;29.75;39.84
9225;BME280;4647;48.072;11.616;2023-08-12T10:45:44;95583.44;;;29.93;38.85
9225;BME280;4647;48.072;11.616;2023-08-12T10:48:23;95581.91;;;30.11;39.70
9225;BME280;4647;48.072;11.616;2023-08-12T10:50:54;95579.56;;;30.15;39.46
9225;BME280;4647;48.072;11.616;2023-08-12T10:53:24;95574.16;;;29.85;39.48
9225;BME280;4647;48.072;11.616;2023-08-12T10:55:59;95580.88;;;29.57;39.81
9225;BME280;4647;48.072;11.616;2023-08-12T10:58:29;95570.84;;;29.49;40.64
9225;BME280;4647;48.072;11.616;2023-08-12T11:00:58;95579.00;;;29.84;40.46
9225;BME280;4647;48.072;11.616;2023-08-12T11:03:31;95573.03;;;29.75;40.04
9225;BME280;4647;48.072;11.616;2023-08-12T11:06:02;95574.69;;;29.83;40.07
9225;BME280;4647;48.072;11.616;2023-08-12T11:08:30;95562.44;;;29.86;41.06
9225;BME280;4647;48.072;11.616;2023-08-12T11:11:19;95560.38;;;30.38;40.04
9225;BME280;4647;48.072;11.616;2023-08-12T11:13:53;95558.44;;;30.33;39.84
9225;BME280;4647;48.072;11.616;2023-08-12T11:16:31;95547.41;;;30.08;39.71
9225;BME280;4647;48.072;11.616;2023-08-12T11:18:59;95554.41;;;30.15;39.03
9225;BME280;4647;48.072;11.616;2023-08-12T11:21:28;95559.78;;;29.94;40.52
9225;BME280;4647;48.072;11.616;2023-08-12T11:23:57;95559.13;;;30.20;39.58
9225;BME280;4647;48.072;11.616;2023-08-12T11:26:28;95553.44;;;30.25;39.69
9225;BME280;4647;48.072;11.616;2023-08-12T11:28:56;95551.38;;;30.13;38.97
9225;BME280;4647;48.072;11.616;2023-08-12T11:31:25;95545.47;;;29.84;39.38
9225;BME280;4647;48.072;11.616;2023-08-12T11:33:54;95546.56;;;29.94;39.75
9225;BME280;4647;48.072;11.616;2023-08-12T11:36:23;95537.31;;;29.86;39.23
9225;BME280;4647;48.072;11.616;2023-08-12T11:38:52;95541.72;;;29.95;39.41
9225;BME280;4647;48.072;11.616;2023-08-12T11:41:22;95543.59;;;30.38;38.61
9225;BME280;4647;48.072;11.616;2023-08-12T11:43:53;95536.63;;;30.58;38.51
9225;BME280;4647;48.072;11.616;2023-08-12T11:46:21;95529.75;;;30.59;37.99
9225;BME280;4647;48.072;11.616;2023-08-12T11:48:50;95541.97;;;30.29;37.54
9225;BME280;4647;48.072;11.616;2023-08-12T11:51:18;95536.63;;;30.58;37.29
9225;BME280;4647;48.072;11.616;2023-08-12T11:53:47;95538.38;;;30.61;35.32
9225;BME280;4647;48.072;11.616;2023-08-12T11:56:16;95531.75;;;30.45;35.99
9225;BME280;4647;48.072;11.616;2023-08-12T11:58:48;95531.22;;;30.46;36.13
9225;BME280;4647;48.072;11.616;2023-08-12T12:01:21;95530.28;;;30.97;36.14
9225;BME280;4647;48.072;11.616;2023-08-12T12:03:51;95532.13;;;31.21;34.96
9225;BME280;4647;48.072;11.616;2023-08-12T12:06:28;95514.84;;;31.43;34.87
9225;BME280;4647;48.072;11.616;2023-08-12T12:09:00;95524.75;;;31.44;33.44
9225;BME280;4647;48.072;11.616;2023-08-12T12:11:30;95516.63;;;30.93;34.53
9225;BME280;4647;48.072;11.616;2023-08-12T12:14:01;95519.63;;;31.22;34.83
9225;BME280;4647;48.072;11.616;2023-08-12T12:16:47;95514.94;;;31.51;32.86
9225;BME280;4647;48.072;11.616;2023-08-12T12:19:18;95528.75;;;31.35;33.06
9225;BME280;4647;48.072;11.616;2023-08-12T12:21:47;95519.19;;;31.31;33.30
9225;BME280;4647;48.072;11.616;2023-08-12T12:24:17;95520.50;;;30.90;34.23
9225;BME280;4647;48.072;11.616;2023-08-12T12:26:47;95518.91;;;30.68;34.61
9225;BME280;4647;48.072;11.616;2023-08-12T12:29:15;95509.34;;;30.77;34.74
9225;BME280;4647;48.072;11.616;2023-08-12T12:31:46;95516.97;;;31.03;33.28
9225;BME280;4647;48.072;11.616;2023-08-12T12:34:15;95504.84;;;31.34;32.25
9225;BME280;4647;48.072;11.616;2023-08-12T12:36:43;95505.16;;;31.65;31.94
9225;BME280;4647;48.072;11.616;2023-08-12T12:39:12;95508.91;;;31.46;32.87
9225;BME280;4647;48.072;11.616;2023-08-12T12:41:40;95505.50;;;31.74;31.93
9225;BME280;4647;48.072;11.616;2023-08-12T12:44:09;95499.81;;;31.88;30.72
9225;BME280;4647;48.072;11.616;2023-08-12T12:46:37;95508.63;;;31.92;31.85
9225;BME280;4647;48.072;11.616;2023-08-12T12:49:08;95502.16;;;31.76;33.18
9225;BME280;4647;48.072;11.616;2023-08-12T12:51:37;95514.88;;;31.98;32.77
9225;BME280;4647;48.072;11.616;2023-08-12T12:54:05;95498.41;;;31.60;32.45
9225;BME280;4647;48.072;11.616;2023-08-12T12:56:33;95491.31;;;31.59;32.95
9225;BME280;4647;48.072;11.616;2023-08-12T12:59:02;95497.06;;;32.16;32.21
9225;BME280;4647;48.072;11.616;2023-08-12T13:01:31;95491.78;;;32.83;31.80
9225;BME280;4647;48.072;11.616;2023-08-12T13:03:59;95495.41;;;32.99;31.42
9225;BME280;4647;48.072;11.616;2023-08-12T13:06:30;95498.13;;;32.55;30.53
9225;BME280;4647;48.072;11.616;2023-08-12T13:08:59;95501.25;;;32.44;31.14
9225;BME280;4647;48.072;11.616;2023-08-12T13:11:28;95497.44;;;31.92;31.24
9225;BME280;4647;48.072;11.616;2023-08-12T13:13:56;95493.56;;;31.95;31.14
9225;BME280;4647;48.072;11.616;2023-08-12T13:16:25;95498.59;;;31.96;31.86
9225;BME280;4647;48.072;11.616;2023-08-12T13:18:53;95489.22;;;31.94;32.81
9225;BME280;4647;48.072;11.616;2023-08-12T13:21:23;95490.72;;;32.16;32.29